createdAt,value
2023-02-08T00:00:46.577Z,59.40
2023-02-08T00:03:13.429Z,59.30
2023-02-08T00:05:40.882Z,64.70
2023-02-08T00:08:09.057Z,58.90
2023-02-08T00:10:35.913Z,62.80
2023-02-08T00:13:02.959Z,68.70
2023-02-08T00:15:30.189Z,57.40
2023-02-08T00:17:57.070Z,57.10
2023-02-08T00:20:23.773Z,63.60
2023-02-08T00:22:52.527Z,72.30
2023-02-08T00:25:20.256Z,70.60
2023-02-08T00:27:47.168Z,65.00
2023-02-08T00:30:14.332Z,74.70
2023-02-08T00:32:41.994Z,61.40
2023-02-08T00:35:09.150Z,74.00
2023-02-08T00:37:35.989Z,62.20
2023-02-08T00:40:05.238Z,62.60
2023-02-08T00:42:32.233Z,64.40
2023-02-08T00:44:59.136Z,64.50
2023-02-08T00:47:26.019Z,73.70
2023-02-08T00:49:53.993Z,71.40
2023-02-08T00:52:20.942Z,67.90
2023-02-08T00:54:47.761Z,67.30
2023-02-08T00:57:14.928Z,67.50
2023-02-08T00:59:42.391Z,65.70
2023-02-08T01:02:09.186Z,62.70
2023-02-08T01:04:36.492Z,64.80
2023-02-08T01:07:04.492Z,65.50
2023-02-08T01:09:31.286Z,68.60
2023-02-08T01:11:57.984Z,63.80
2023-02-08T01:14:25.395Z,75.50
2023-02-08T01:16:52.853Z,78.00
2023-02-08T01:19:19.799Z,73.60
2023-02-08T01:21:48.797Z,69.20
2023-02-08T01:24:16.278Z,68.00
2023-02-08T01:26:43.301Z,64.00
2023-02-08T01:29:10.590Z,75.30
2023-02-08T01:31:40.296Z,69.60
2023-02-08T01:34:08.434Z,76.20
2023-02-08T01:36:35.824Z,72.70
2023-02-08T01:39:04.375Z,67.40
2023-02-08T01:41:33.954Z,69.60
2023-02-08T01:44:01.044Z,69.10
2023-02-08T01:46:28.802Z,81.20
2023-02-08T01:48:57.796Z,73.50
2023-02-08T01:51:28.421Z,60.80
2023-02-08T01:53:55.400Z,60.40
2023-02-08T01:56:28.556Z,63.70
2023-02-08T01:58:57.566Z,69.70
2023-02-08T02:01:24.799Z,64.60
2023-02-08T02:03:51.763Z,60.70
2023-02-08T02:06:25.513Z,61.30
2023-02-08T02:09:33.164Z,60.00
2023-02-08T02:12:00.721Z,64.40
2023-02-08T02:14:27.734Z,62.40
2023-02-08T02:16:54.950Z,71.00
2023-02-08T02:19:31.183Z,60.70
2023-02-08T02:22:14.831Z,73.40
2023-02-08T02:24:59.614Z,69.80
2023-02-08T02:27:45.778Z,61.50
2023-02-08T02:30:25.267Z,67.30
2023-02-08T02:33:10.597Z,74.70
2023-02-08T02:35:49.530Z,62.10
2023-02-08T02:38:20.674Z,73.60
2023-02-08T02:40:53.626Z,66.80
2023-02-08T02:43:43.643Z,87.60
2023-02-08T02:46:24.220Z,67.30
2023-02-08T02:49:03.969Z,68.60
2023-02-08T02:51:57.322Z,66.20
2023-02-08T02:54:25.273Z,62.80
2023-02-08T02:56:59.680Z,58.60
2023-02-08T02:59:26.763Z,57.80
2023-02-08T03:01:54.089Z,76.60
2023-02-08T03:04:33.071Z,67.90
2023-02-08T03:07:21.816Z,62.90
2023-02-08T03:10:22.687Z,67.80
2023-02-08T03:13:37.458Z,62.20
2023-02-08T03:16:07.737Z,55.10
2023-02-08T03:18:42.668Z,66.40
2023-02-08T03:21:12.233Z,65.80
2023-02-08T03:23:51.356Z,60.00
2023-02-08T03:26:23.276Z,66.80
2023-02-08T03:29:01.893Z,62.90
2023-02-08T03:31:33.148Z,59.60
2023-02-08T03:34:12.419Z,60.60
2023-02-08T03:37:26.500Z,65.20
2023-02-08T03:39:58.296Z,64.20
2023-02-08T03:42:25.543Z,67.20
2023-02-08T03:45:05.176Z,65.10
2023-02-08T03:47:37.680Z,71.50
2023-02-08T03:50:07.271Z,60.70
2023-02-08T03:52:34.437Z,62.10
2023-02-08T03:55:10.430Z,58.80
2023-02-08T03:57:45.814Z,65.90
2023-02-08T04:00:14.047Z,65.60
2023-02-08T04:02:46.402Z,69.40
2023-02-08T04:05:13.614Z,61.00
2023-02-08T04:07:40.763Z,71.70
2023-02-08T04:10:08.030Z,62.80
2023-02-08T04:12:35.475Z,62.80
2023-02-08T04:15:02.884Z,78.20
2023-02-08T04:17:29.878Z,64.00
2023-02-08T04:19:57.129Z,70.00
2023-02-08T04:22:23.865Z,63.50
2023-02-08T04:24:50.758Z,71.00
2023-02-08T04:27:17.480Z,65.60
2023-02-08T04:29:44.506Z,56.10
2023-02-08T04:32:11.254Z,66.90
2023-02-08T04:34:39.332Z,65.20
2023-02-08T04:37:06.764Z,65.10
2023-02-08T04:39:33.625Z,64.30
2023-02-08T04:42:02.292Z,73.20
2023-02-08T04:44:32.270Z,59.90
2023-02-08T04:46:59.894Z,58.40
2023-02-08T04:49:26.634Z,54.70
2023-02-08T04:51:54.091Z,58.20
2023-02-08T04:54:21.962Z,62.50
2023-02-08T04:56:48.655Z,60.20
2023-02-08T04:59:15.234Z,72.50
2023-02-08T05:01:41.965Z,71.20
2023-02-08T05:04:08.917Z,68.20
2023-02-08T05:06:35.618Z,64.60
2023-02-08T05:09:03.013Z,67.80
2023-02-08T05:11:30.005Z,73.50
2023-02-08T05:13:56.960Z,76.30
2023-02-08T05:16:24.110Z,90.30
2023-02-08T05:18:50.863Z,78.70
2023-02-08T05:21:17.843Z,87.50
2023-02-08T05:23:46.623Z,73.20
2023-02-08T05:26:14.817Z,83.10
2023-02-08T05:28:41.786Z,72.40
2023-02-08T05:31:20.060Z,70.60
2023-02-08T05:33:48.445Z,72.80
2023-02-08T05:36:16.536Z,74.10
2023-02-08T05:38:43.457Z,70.90
2023-02-08T05:41:10.302Z,69.40
2023-02-08T05:43:37.961Z,62.70
2023-02-08T05:46:05.155Z,76.60
2023-02-08T05:48:31.804Z,71.10
2023-02-08T05:50:59.221Z,59.80
2023-02-08T05:53:26.755Z,64.20
2023-02-08T05:55:53.513Z,59.00
2023-02-08T05:58:20.356Z,60.90
2023-02-08T06:00:47.605Z,62.50
2023-02-08T06:03:14.411Z,64.00
2023-02-08T06:05:41.633Z,62.40
2023-02-08T06:08:08.857Z,67.70
2023-02-08T06:10:36.173Z,60.50
2023-02-08T06:13:03.493Z,55.60
2023-02-08T06:15:30.506Z,51.90
2023-02-08T06:17:57.994Z,55.80
2023-02-08T06:20:24.813Z,53.30
2023-02-08T06:22:52.192Z,86.60
2023-02-08T06:25:19.546Z,63.70
2023-02-08T06:27:46.847Z,47.60
2023-02-08T06:30:13.658Z,55.70
2023-02-08T06:32:41.017Z,54.10
2023-02-08T06:35:08.348Z,55.30
2023-02-08T06:37:35.891Z,55.00
2023-02-08T06:40:03.720Z,58.10
2023-02-08T06:42:31.237Z,57.40
2023-02-08T06:44:58.689Z,57.20
2023-02-08T06:47:26.242Z,55.80
2023-02-08T06:49:53.185Z,58.00
2023-02-08T06:52:20.493Z,51.20
2023-02-08T06:54:47.585Z,50.90
2023-02-08T06:57:14.356Z,50.50
2023-02-08T06:59:41.410Z,56.30
2023-02-08T07:02:12.991Z,56.10
2023-02-08T07:04:40.004Z,57.20
2023-02-08T07:07:07.088Z,50.10
2023-02-08T07:09:34.921Z,48.60
2023-02-08T07:12:04.644Z,49.90
2023-02-08T07:14:33.292Z,47.10
2023-02-08T07:17:02.811Z,55.10
2023-02-08T07:19:29.991Z,60.90
2023-02-08T07:21:57.241Z,50.40
2023-02-08T07:24:24.095Z,72.50
2023-02-08T07:26:52.063Z,64.70
2023-02-08T07:29:19.184Z,51.20
2023-02-08T07:31:46.452Z,55.90
2023-02-08T07:34:13.665Z,51.40
2023-02-08T07:36:44.710Z,102.50
2023-02-08T07:39:12.270Z,69.30
2023-02-08T07:41:42.349Z,68.10
2023-02-08T07:44:09.922Z,51.80
2023-02-08T07:46:36.800Z,81.40
2023-02-08T07:49:03.757Z,69.40
2023-02-08T07:51:30.523Z,57.40
2023-02-08T07:53:57.332Z,84.40
2023-02-08T07:56:24.202Z,53.20
2023-02-08T07:58:51.117Z,55.10
2023-02-08T08:01:22.367Z,50.70
2023-02-08T08:03:50.798Z,63.00
2023-02-08T08:06:19.334Z,71.20
2023-02-08T08:08:47.476Z,51.60
2023-02-08T08:11:15.510Z,39.40
2023-02-08T08:13:43.751Z,51.10
2023-02-08T08:16:10.762Z,61.20
2023-02-08T08:18:37.592Z,44.00
2023-02-08T08:21:05.494Z,48.30
2023-02-08T08:23:32.768Z,77.60
2023-02-08T08:26:00.328Z,51.20
2023-02-08T08:28:27.399Z,63.70
2023-02-08T08:30:54.513Z,44.90
2023-02-08T08:33:21.718Z,48.60
2023-02-08T08:35:48.505Z,57.30
2023-02-08T08:38:15.301Z,56.90
2023-02-08T08:40:43.000Z,56.50
2023-02-08T08:43:10.814Z,50.80
2023-02-08T08:45:37.735Z,37.90
2023-02-08T08:48:05.398Z,43.50
2023-02-08T08:50:33.776Z,49.50
2023-02-08T08:53:00.724Z,39.30
2023-02-08T08:55:27.986Z,34.80
2023-02-08T08:57:54.922Z,38.60
2023-02-08T09:00:22.487Z,54.20
2023-02-08T09:02:49.527Z,39.90
2023-02-08T09:05:16.482Z,51.10
2023-02-08T09:07:43.439Z,40.50
2023-02-08T09:10:15.508Z,47.30
2023-02-08T09:12:42.463Z,40.90
2023-02-08T09:15:11.020Z,39.10
2023-02-08T09:17:38.370Z,41.60
2023-02-08T09:20:05.795Z,43.60
2023-02-08T09:22:33.134Z,36.00
2023-02-08T09:25:01.844Z,34.80
2023-02-08T09:27:29.447Z,40.80
2023-02-08T09:29:56.471Z,36.50
2023-02-08T09:32:23.624Z,32.50
2023-02-08T09:34:51.131Z,30.10
2023-02-08T09:37:18.040Z,36.80
2023-02-08T09:39:45.166Z,44.50
2023-02-08T09:42:17.965Z,39.20
2023-02-08T09:44:55.267Z,39.70
2023-02-08T09:47:36.463Z,36.10
2023-02-08T09:50:05.584Z,34.10
2023-02-08T09:52:42.269Z,39.10
2023-02-08T09:55:30.970Z,30.00
2023-02-08T09:57:58.933Z,37.70
2023-02-08T10:00:41.211Z,29.80
2023-02-08T10:03:33.306Z,36.70
2023-02-08T10:06:02.059Z,28.50
2023-02-08T10:08:35.256Z,33.40
2023-02-08T10:11:08.978Z,34.80
2023-02-08T10:14:03.156Z,30.50
2023-02-08T10:16:49.515Z,28.40
2023-02-08T10:19:35.636Z,29.90
2023-02-08T10:22:34.892Z,32.30
2023-02-08T10:25:23.526Z,29.70
2023-02-08T10:28:12.609Z,26.40
2023-02-08T10:30:39.513Z,25.40
2023-02-08T10:33:11.878Z,25.40
2023-02-08T10:35:41.884Z,23.60
2023-02-08T10:38:44.242Z,22.70
2023-02-08T10:41:35.396Z,20.60
2023-02-08T10:44:30.396Z,27.10
2023-02-08T10:47:15.777Z,24.70
2023-02-08T10:50:09.591Z,24.10
2023-02-08T10:52:37.431Z,30.80
2023-02-08T10:55:15.486Z,30.90
2023-02-08T10:57:43.487Z,33.10
2023-02-08T11:00:13.296Z,33.90
2023-02-08T11:02:41.013Z,31.20
2023-02-08T11:05:13.266Z,37.70
2023-02-08T11:07:41.814Z,43.00
2023-02-08T11:10:17.669Z,33.80
2023-02-08T11:12:57.932Z,37.30
2023-02-08T11:15:29.096Z,33.90
2023-02-08T11:18:00.529Z,28.50
2023-02-08T11:20:36.142Z,35.00
2023-02-08T11:23:04.814Z,32.70
2023-02-08T11:25:38.542Z,35.60
2023-02-08T11:28:41.492Z,31.30
2023-02-08T11:31:19.547Z,29.80
2023-02-08T11:34:05.879Z,33.40
2023-02-08T11:36:33.960Z,29.50
2023-02-08T11:39:02.934Z,34.20
2023-02-08T11:41:29.991Z,28.70
2023-02-08T11:44:01.239Z,37.30
2023-02-08T11:46:28.988Z,30.00
2023-02-08T11:48:55.904Z,33.20
2023-02-08T11:51:31.993Z,24.90
2023-02-08T11:54:00.380Z,33.20
2023-02-08T11:56:28.893Z,24.50
2023-02-08T11:59:15.317Z,29.30
2023-02-08T12:01:43.118Z,31.00
2023-02-08T12:04:11.309Z,30.70
2023-02-08T12:06:58.261Z,26.50
2023-02-08T12:09:36.425Z,29.30
2023-02-08T12:12:15.028Z,31.10
2023-02-08T12:15:13.017Z,31.70
2023-02-08T12:17:52.585Z,31.40
2023-02-08T12:20:30.129Z,28.40
2023-02-08T12:25:43.065Z,28.70
2023-02-08T12:28:16.515Z,29.60
2023-02-08T12:30:57.487Z,32.70
2023-02-08T12:33:46.531Z,33.70
2023-02-08T12:37:11.222Z,30.30
2023-02-08T12:40:38.802Z,32.70
2023-02-08T12:43:21.269Z,25.80
2023-02-08T12:45:57.382Z,30.50
2023-02-08T12:48:33.737Z,28.80
2023-02-08T12:51:06.612Z,31.50
2023-02-08T12:53:38.875Z,32.20
2023-02-08T12:58:39.814Z,28.70
2023-02-08T13:01:34.354Z,33.20
2023-02-08T13:04:09.060Z,32.10
2023-02-08T13:06:41.716Z,31.40
2023-02-08T13:16:46.872Z,29.60
2023-02-08T13:19:27.301Z,40.10
2023-02-08T13:21:55.721Z,34.30
2023-02-08T13:24:52.439Z,29.80
2023-02-08T13:27:29.955Z,46.00
2023-02-08T13:29:58.648Z,28.40
2023-02-08T13:32:42.776Z,27.20
2023-02-08T13:35:20.150Z,23.10
2023-02-08T13:38:12.392Z,27.90
2023-02-08T13:40:41.127Z,28.30
2023-02-08T13:43:34.316Z,31.90
2023-02-08T13:46:03.480Z,30.20
2023-02-08T13:48:48.911Z,26.80
2023-02-08T13:51:32.656Z,29.20
2023-02-08T13:54:01.069Z,32.40
2023-02-08T13:56:48.890Z,29.00
2023-02-08T13:59:29.114Z,37.80
2023-02-08T14:02:19.113Z,31.60
2023-02-08T14:05:19.962Z,36.00
2023-02-08T14:10:37.704Z,37.40
2023-02-08T14:13:25.333Z,46.10
2023-02-08T14:16:24.382Z,37.50
2023-02-08T14:18:57.934Z,41.50
2023-02-08T14:21:45.987Z,39.70
2023-02-08T14:24:23.549Z,38.70
2023-02-08T14:26:51.853Z,38.70
2023-02-08T14:29:24.573Z,37.50
2023-02-08T14:31:55.559Z,37.90
2023-02-08T14:34:34.894Z,34.50
2023-02-08T14:37:27.816Z,44.80
2023-02-08T14:40:23.563Z,41.20
2023-02-08T14:43:03.334Z,37.30
2023-02-08T14:45:37.970Z,40.50
2023-02-08T14:48:20.766Z,39.10
2023-02-08T14:51:10.884Z,43.10
2023-02-08T14:53:42.322Z,62.80
2023-02-08T14:56:10.393Z,58.60
2023-02-08T14:58:43.627Z,55.30
2023-02-08T15:01:45.046Z,64.50
2023-02-08T15:07:09.364Z,47.40
2023-02-08T15:09:39.301Z,49.70
2023-02-08T15:12:34.516Z,56.10
2023-02-08T15:15:07.157Z,55.80
2023-02-08T15:17:39.304Z,60.30
2023-02-08T15:20:09.414Z,134.80
2023-02-08T15:22:38.621Z,53.70
2023-02-08T15:25:34.801Z,49.90
2023-02-08T15:28:24.061Z,52.30
2023-02-08T15:31:11.885Z,57.60
2023-02-08T15:33:40.743Z,53.70
2023-02-08T15:36:15.311Z,60.50
2023-02-08T15:38:45.083Z,48.70
2023-02-08T15:41:14.517Z,47.50
2023-02-08T15:43:43.074Z,46.30
2023-02-08T15:46:22.290Z,52.20
2023-02-08T15:48:51.200Z,46.10
2023-02-08T15:51:23.222Z,47.10
2023-02-08T15:53:52.767Z,42.70
2023-02-08T15:56:36.795Z,45.10
2023-02-08T15:59:07.015Z,41.40
2023-02-08T16:01:37.121Z,41.30
2023-02-08T16:04:12.648Z,40.30
2023-02-08T16:06:53.407Z,39.20
2023-02-08T16:09:27.526Z,42.20
2023-02-08T16:12:00.823Z,36.90
2023-02-08T16:14:38.040Z,44.60
2023-02-08T16:17:44.230Z,47.60
2023-02-08T16:20:41.470Z,73.10
2023-02-08T16:23:25.539Z,70.90
2023-02-08T16:25:54.129Z,49.30
2023-02-08T16:28:30.216Z,52.80
2023-02-08T16:31:00.038Z,70.40
2023-02-08T16:33:28.200Z,119.60
2023-02-08T16:36:02.003Z,119.20
2023-02-08T16:38:31.778Z,95.80
2023-02-08T16:41:12.338Z,78.40
2023-02-08T16:43:44.521Z,50.20
2023-02-08T16:46:16.420Z,40.80
2023-02-08T16:48:56.849Z,45.40
2023-02-08T16:51:29.216Z,41.50
2023-02-08T16:54:02.531Z,115.90
2023-02-08T16:56:30.732Z,93.70
2023-02-08T16:58:58.987Z,125.70
2023-02-08T17:01:28.712Z,163.80
2023-02-08T17:03:57.070Z,111.10
2023-02-08T17:06:34.771Z,94.00
2023-02-08T17:09:06.358Z,68.10
2023-02-08T17:11:36.196Z,61.30
2023-02-08T17:14:05.227Z,63.80
2023-02-08T17:16:34.497Z,73.40
2023-02-08T17:19:03.036Z,101.10
2023-02-08T17:21:31.434Z,116.50
2023-02-08T17:23:59.486Z,137.70
2023-02-08T17:26:37.950Z,143.40
2023-02-08T17:29:06.182Z,111.00
2023-02-08T17:31:35.902Z,131.40
2023-02-08T17:34:07.034Z,138.60
2023-02-08T17:36:37.130Z,133.80
2023-02-08T17:39:05.519Z,145.40
2023-02-08T17:41:35.511Z,120.30
2023-02-08T17:44:04.278Z,116.00
2023-02-08T17:46:33.484Z,114.00
2023-02-08T17:49:01.938Z,114.20
2023-02-08T17:51:30.733Z,77.40
2023-02-08T17:53:58.959Z,105.20
2023-02-08T17:56:28.645Z,96.10
2023-02-08T17:58:56.707Z,94.00
2023-02-08T18:01:26.336Z,98.60
2023-02-08T18:03:55.068Z,69.00
2023-02-08T18:06:25.083Z,64.70
2023-02-08T18:08:56.439Z,68.40
2023-02-08T18:11:24.734Z,75.70
2023-02-08T18:13:53.454Z,130.70
2023-02-08T18:16:24.047Z,159.30
2023-02-08T18:18:55.643Z,145.50
2023-02-08T18:21:25.947Z,128.50
2023-02-08T18:23:55.744Z,112.70
2023-02-08T18:26:24.299Z,102.40
2023-02-08T18:28:53.023Z,104.20
2023-02-08T18:31:21.308Z,106.00
2023-02-08T18:33:50.244Z,102.80
2023-02-08T18:36:19.625Z,115.40
2023-02-08T18:38:52.679Z,132.30
2023-02-08T18:41:26.261Z,131.20
2023-02-08T18:43:55.402Z,116.10
2023-02-08T18:46:26.390Z,113.40
2023-02-08T18:48:54.690Z,88.70
2023-02-08T18:51:23.407Z,83.60
2023-02-08T18:53:53.753Z,75.60
2023-02-08T18:56:24.022Z,73.80
2023-02-08T18:58:52.956Z,86.20
2023-02-08T19:01:22.681Z,79.00
2023-02-08T19:03:52.020Z,89.00
2023-02-08T19:06:22.826Z,78.00
2023-02-08T19:08:52.448Z,65.00
2023-02-08T19:11:20.583Z,51.60
2023-02-08T19:13:49.617Z,54.10
2023-02-08T19:16:17.988Z,299.20
2023-02-08T19:18:48.566Z,151.00
2023-02-08T19:21:17.588Z,138.00
2023-02-08T19:23:47.581Z,134.50
2023-02-08T19:26:25.652Z,108.60
2023-02-08T19:28:57.737Z,97.40
2023-02-08T19:31:26.790Z,89.60
2023-02-08T19:33:58.505Z,92.60
2023-02-08T19:36:29.166Z,138.70
2023-02-08T19:38:57.574Z,152.90
2023-02-08T19:41:32.503Z,163.40
2023-02-08T19:44:01.648Z,181.60
2023-02-08T19:46:29.964Z,129.00
2023-02-08T19:49:01.676Z,141.70
2023-02-08T19:51:32.292Z,153.70
2023-02-08T19:54:01.447Z,171.90
2023-02-08T19:56:33.875Z,207.30
2023-02-08T19:59:06.334Z,170.80
2023-02-08T20:01:35.522Z,172.00
2023-02-08T20:04:05.773Z,101.10
2023-02-08T20:09:05.593Z,147.00
2023-02-08T20:11:45.121Z,131.90
2023-02-08T20:14:19.475Z,135.30
2023-02-08T20:16:48.148Z,149.80
2023-02-08T20:19:16.499Z,139.40
2023-02-08T20:21:45.591Z,169.10
2023-02-08T20:24:14.022Z,171.40
2023-02-08T20:26:43.973Z,160.40
2023-02-08T20:29:12.719Z,182.80
2023-02-08T20:31:43.371Z,204.20
2023-02-08T20:34:13.455Z,235.00
2023-02-08T20:36:49.772Z,169.10
2023-02-08T20:39:22.653Z,220.30
2023-02-08T20:41:51.105Z,186.50
2023-02-08T20:44:19.979Z,162.20
2023-02-08T20:46:48.222Z,133.10
2023-02-08T20:49:22.099Z,98.00
2023-02-08T20:51:52.165Z,167.40
2023-02-08T20:54:20.491Z,160.40
2023-02-08T20:56:48.768Z,112.30
2023-02-08T20:59:17.061Z,167.70
2023-02-08T21:01:46.602Z,170.00
2023-02-08T21:04:17.186Z,137.30
2023-02-08T21:06:46.335Z,107.80
2023-02-08T21:09:16.159Z,99.90
2023-02-08T21:11:44.704Z,127.10
2023-02-08T21:14:19.095Z,87.00
2023-02-08T21:16:48.781Z,85.50
2023-02-08T21:19:17.443Z,86.50
2023-02-08T21:21:45.936Z,79.50
2023-02-08T21:24:15.243Z,83.30
2023-02-08T21:26:43.307Z,79.80
2023-02-08T21:29:11.501Z,80.50
2023-02-08T21:31:39.782Z,90.70
2023-02-08T21:34:08.188Z,82.90
2023-02-08T21:36:36.612Z,98.30
2023-02-08T21:39:05.982Z,95.40
2023-02-08T21:41:34.380Z,96.00
2023-02-08T21:44:03.931Z,84.90
2023-02-08T21:46:32.326Z,86.20
2023-02-08T21:49:19.584Z,84.80
2023-02-08T21:52:07.716Z,95.10
2023-02-08T21:54:41.736Z,66.70
2023-02-08T21:57:19.100Z,88.90
2023-02-08T21:59:51.963Z,100.70
2023-02-08T22:02:28.173Z,98.30
2023-02-08T22:05:00.286Z,102.70
2023-02-08T22:07:32.199Z,102.60
2023-02-08T22:10:07.475Z,118.00
2023-02-08T22:12:40.341Z,130.30
2023-02-08T22:15:12.136Z,117.90
2023-02-08T22:17:44.168Z,111.30
2023-02-08T22:20:15.916Z,111.60
2023-02-08T22:22:47.221Z,110.30
2023-02-08T22:25:18.803Z,99.40
2023-02-08T22:27:49.470Z,101.50
2023-02-08T22:30:20.984Z,103.10
2023-02-08T22:32:52.558Z,123.20
2023-02-08T22:35:22.762Z,106.20
2023-02-08T22:40:23.769Z,122.10
2023-02-08T22:42:54.206Z,116.60
2023-02-08T22:45:24.428Z,118.20
2023-02-08T22:47:55.217Z,125.30
2023-02-08T22:50:26.408Z,121.70
2023-02-08T23:00:32.498Z,106.40
2023-02-08T23:03:00.810Z,108.90
2023-02-08T23:05:29.387Z,110.10
2023-02-08T23:07:58.022Z,121.50
2023-02-08T23:10:26.300Z,116.60
2023-02-08T23:12:54.690Z,107.40
2023-02-08T23:15:22.954Z,125.90
2023-02-08T23:17:52.428Z,119.30
2023-02-08T23:20:20.537Z,122.00
2023-02-08T23:22:49.318Z,113.20
2023-02-08T23:25:18.131Z,112.70
2023-02-08T23:27:46.585Z,124.90
2023-02-08T23:30:15.305Z,126.70
2023-02-08T23:32:43.985Z,215.10
2023-02-08T23:35:12.440Z,309.60
2023-02-08T23:37:40.935Z,313.50
2023-02-08T23:40:10.400Z,169.20
2023-02-08T23:42:38.739Z,119.90
2023-02-08T23:45:08.030Z,113.10
2023-02-08T23:50:07.091Z,103.10
2023-02-08T23:52:35.506Z,80.90
2023-02-08T23:55:05.132Z,103.30
2023-02-08T23:57:36.681Z,109.50
